Waverly, Florida
Current Conditions -  °F | °C
As of 6:53 PM on Sunday 21 Dec 2014 (Local Time) from KGIF Reporting Station
Overcast Overcast  
Wind Chill: 69°   Ceiling: 7000
Heat Index: 69°   Visibility: 10mi
Dew Point: 65°   Wind: 5mph
Humidity: 87%   Direction: 40°NE
Pressure: 30.05"   Gusts: NA
Location:  27.98°N, 81.61°W
Report Text: KGIF 212353Z AUTO 04004KT 10SM OVC070 21/18 A3005 RMK AO2 SLP174 60001 T02060183 10267 20206 51014
Loading
Personal Weather Stations






























Interactive Weather Map New forecast layout! Learn more

10-Day Weather Forecast

Advertisements
Track Severe Weather on mobile